sensor_id;sensor_type;location;lat;lon;timestamp;P1;durP1;ratioP1;P2;durP2;ratioP2
44925;SDS011;30662;51.210;7.656;2022-12-05T00:02:12;39.90;;;24.48;;
44925;SDS011;30662;51.210;7.656;2022-12-05T00:04:38;39.33;;;24.27;;
44925;SDS011;30662;51.210;7.656;2022-12-05T00:07:04;45.85;;;24.90;;
44925;SDS011;30662;51.210;7.656;2022-12-05T00:09:30;43.10;;;23.50;;
44925;SDS011;30662;51.210;7.656;2022-12-05T00:11:55;131.88;;;26.40;;
44925;SDS011;30662;51.210;7.656;2022-12-05T00:14:23;37.78;;;23.38;;
44925;SDS011;30662;51.210;7.656;2022-12-05T00:16:48;51.25;;;22.92;;
44925;SDS011;30662;51.210;7.656;2022-12-05T00:19:14;54.25;;;23.70;;
44925;SDS011;30662;51.210;7.656;2022-12-05T00:21:41;38.20;;;23.90;;
44925;SDS011;30662;51.210;7.656;2022-12-05T00:24:09;39.40;;;24.00;;
44925;SDS011;30662;51.210;7.656;2022-12-05T00:26:38;147.98;;;26.52;;
44925;SDS011;30662;51.210;7.656;2022-12-05T00:29:04;60.80;;;24.85;;
44925;SDS011;30662;51.210;7.656;2022-12-05T00:31:32;37.55;;;22.85;;
44925;SDS011;30662;51.210;7.656;2022-12-05T00:33:59;39.47;;;21.98;;
44925;SDS011;30662;51.210;7.656;2022-12-05T00:36:27;75.47;;;23.77;;
44925;SDS011;30662;51.210;7.656;2022-12-05T00:38:57;88.82;;;24.05;;
44925;SDS011;30662;51.210;7.656;2022-12-05T00:41:25;60.85;;;23.20;;
44925;SDS011;30662;51.210;7.656;2022-12-05T00:43:52;42.70;;;23.48;;
44925;SDS011;30662;51.210;7.656;2022-12-05T00:46:20;68.90;;;23.23;;
44925;SDS011;30662;51.210;7.656;2022-12-05T00:48:53;37.80;;;23.13;;
44925;SDS011;30662;51.210;7.656;2022-12-05T00:51:24;52.33;;;24.70;;
44925;SDS011;30662;51.210;7.656;2022-12-05T00:53:56;41.88;;;23.80;;
44925;SDS011;30662;51.210;7.656;2022-12-05T00:56:24;49.90;;;24.52;;
44925;SDS011;30662;51.210;7.656;2022-12-05T00:58:51;72.55;;;24.60;;
44925;SDS011;30662;51.210;7.656;2022-12-05T01:01:19;57.17;;;22.35;;
44925;SDS011;30662;51.210;7.656;2022-12-05T01:03:46;38.70;;;22.33;;
44925;SDS011;30662;51.210;7.656;2022-12-05T01:06:13;35.92;;;22.90;;
44925;SDS011;30662;51.210;7.656;2022-12-05T01:08:40;36.58;;;23.05;;
44925;SDS011;30662;51.210;7.656;2022-12-05T01:11:07;41.25;;;21.42;;
44925;SDS011;30662;51.210;7.656;2022-12-05T01:13:34;83.47;;;24.10;;
44925;SDS011;30662;51.210;7.656;2022-12-05T01:16:01;90.95;;;24.15;;
44925;SDS011;30662;51.210;7.656;2022-12-05T01:18:27;60.55;;;22.90;;
44925;SDS011;30662;51.210;7.656;2022-12-05T01:20:53;37.70;;;23.83;;
44925;SDS011;30662;51.210;7.656;2022-12-05T01:23:19;45.92;;;21.55;;
44925;SDS011;30662;51.210;7.656;2022-12-05T01:25:47;36.53;;;22.00;;
44925;SDS011;30662;51.210;7.656;2022-12-05T01:28:15;56.80;;;22.92;;
44925;SDS011;30662;51.210;7.656;2022-12-05T01:30:43;43.50;;;22.67;;
44925;SDS011;30662;51.210;7.656;2022-12-05T01:33:10;189.85;;;25.05;;
44925;SDS011;30662;51.210;7.656;2022-12-05T01:35:37;48.92;;;22.98;;
44925;SDS011;30662;51.210;7.656;2022-12-05T01:38:04;38.20;;;23.17;;
44925;SDS011;30662;51.210;7.656;2022-12-05T01:40:31;102.28;;;24.77;;
44925;SDS011;30662;51.210;7.656;2022-12-05T01:42:58;265.95;;;28.15;;
44925;SDS011;30662;51.210;7.656;2022-12-05T01:45:34;46.85;;;22.40;;
44925;SDS011;30662;51.210;7.656;2022-12-05T01:48:12;68.15;;;22.17;;
44925;SDS011;30662;51.210;7.656;2022-12-05T01:50:42;78.18;;;23.23;;
44925;SDS011;30662;51.210;7.656;2022-12-05T01:53:08;120.57;;;24.00;;
44925;SDS011;30662;51.210;7.656;2022-12-05T01:55:35;39.05;;;21.98;;
44925;SDS011;30662;51.210;7.656;2022-12-05T01:58:01;74.38;;;20.52;;
44925;SDS011;30662;51.210;7.656;2022-12-05T02:00:29;62.28;;;20.35;;
44925;SDS011;30662;51.210;7.656;2022-12-05T02:02:56;35.35;;;19.10;;
44925;SDS011;30662;51.210;7.656;2022-12-05T02:05:29;35.03;;;17.70;;
44925;SDS011;30662;51.210;7.656;2022-12-05T02:07:57;64.90;;;18.70;;
44925;SDS011;30662;51.210;7.656;2022-12-05T02:10:26;29.85;;;18.02;;
44925;SDS011;30662;51.210;7.656;2022-12-05T02:12:54;30.85;;;18.08;;
44925;SDS011;30662;51.210;7.656;2022-12-05T02:20:48;26.08;;;18.25;;
44925;SDS011;30662;51.210;7.656;2022-12-05T02:38:15;35.08;;;18.08;;
44925;SDS011;30662;51.210;7.656;2022-12-05T02:41:10;40.20;;;18.15;;
44925;SDS011;30662;51.210;7.656;2022-12-05T02:43:45;29.17;;;18.23;;
44925;SDS011;30662;51.210;7.656;2022-12-05T02:46:18;31.92;;;18.35;;
44925;SDS011;30662;51.210;7.656;2022-12-05T02:48:46;49.67;;;17.58;;
44925;SDS011;30662;51.210;7.656;2022-12-05T02:51:17;35.75;;;17.50;;
44925;SDS011;30662;51.210;7.656;2022-12-05T02:53:47;68.43;;;18.70;;
44925;SDS011;30662;51.210;7.656;2022-12-05T02:56:15;28.48;;;18.55;;
44925;SDS011;30662;51.210;7.656;2022-12-05T02:58:47;27.92;;;16.95;;
44925;SDS011;30662;51.210;7.656;2022-12-05T03:03:44;40.30;;;16.25;;
44925;SDS011;30662;51.210;7.656;2022-12-05T03:08:55;22.05;;;15.23;;
44925;SDS011;30662;51.210;7.656;2022-12-05T03:11:27;23.23;;;17.27;;
44925;SDS011;30662;51.210;7.656;2022-12-05T03:13:57;127.28;;;17.65;;
44925;SDS011;30662;51.210;7.656;2022-12-05T03:19:05;28.17;;;16.80;;
44925;SDS011;30662;51.210;7.656;2022-12-05T03:21:42;19.42;;;14.05;;
44925;SDS011;30662;51.210;7.656;2022-12-05T03:24:15;16.75;;;12.75;;
44925;SDS011;30662;51.210;7.656;2022-12-05T03:29:56;18.08;;;13.63;;
44925;SDS011;30662;51.210;7.656;2022-12-05T03:33:09;16.25;;;13.35;;
44925;SDS011;30662;51.210;7.656;2022-12-05T03:35:29;14.93;;;12.07;;
44925;SDS011;30662;51.210;7.656;2022-12-05T03:38:43;18.95;;;13.05;;
44925;SDS011;30662;51.210;7.656;2022-12-05T03:49:07;16.25;;;11.27;;
44925;SDS011;30662;51.210;7.656;2022-12-05T03:51:58;13.40;;;10.95;;
44925;SDS011;30662;51.210;7.656;2022-12-05T03:54:31;13.50;;;10.77;;
44925;SDS011;30662;51.210;7.656;2022-12-05T03:59:47;14.02;;;11.50;;
44925;SDS011;30662;51.210;7.656;2022-12-05T04:02:19;13.98;;;11.35;;
44925;SDS011;30662;51.210;7.656;2022-12-05T04:05:21;13.15;;;11.57;;
44925;SDS011;30662;51.210;7.656;2022-12-05T04:07:52;13.77;;;11.50;;
44925;SDS011;30662;51.210;7.656;2022-12-05T04:10:27;11.38;;;9.50;;
44925;SDS011;30662;51.210;7.656;2022-12-05T04:12:58;13.60;;;10.75;;
44925;SDS011;30662;51.210;7.656;2022-12-05T04:15:43;13.98;;;11.52;;
44925;SDS011;30662;51.210;7.656;2022-12-05T04:18:32;14.40;;;11.00;;
44925;SDS011;30662;51.210;7.656;2022-12-05T04:21:01;13.57;;;11.43;;
44925;SDS011;30662;51.210;7.656;2022-12-05T04:23:48;12.85;;;10.93;;
44925;SDS011;30662;51.210;7.656;2022-12-05T04:26:35;12.65;;;11.35;;
44925;SDS011;30662;51.210;7.656;2022-12-05T04:29:10;13.07;;;11.07;;
44925;SDS011;30662;51.210;7.656;2022-12-05T04:31:50;13.85;;;11.25;;
44925;SDS011;30662;51.210;7.656;2022-12-05T04:34:21;12.85;;;10.68;;
44925;SDS011;30662;51.210;7.656;2022-12-05T04:36:50;13.43;;;11.20;;
44925;SDS011;30662;51.210;7.656;2022-12-05T04:39:33;12.00;;;10.73;;
44925;SDS011;30662;51.210;7.656;2022-12-05T04:42:18;11.80;;;10.57;;
44925;SDS011;30662;51.210;7.656;2022-12-05T04:44:49;12.48;;;11.18;;
44925;SDS011;30662;51.210;7.656;2022-12-05T04:47:19;13.10;;;10.68;;
44925;SDS011;30662;51.210;7.656;2022-12-05T04:49:48;12.93;;;10.63;;
44925;SDS011;30662;51.210;7.656;2022-12-05T04:52:19;11.63;;;10.35;;
44925;SDS011;30662;51.210;7.656;2022-12-05T04:54:50;13.20;;;10.57;;
44925;SDS011;30662;51.210;7.656;2022-12-05T04:59:55;11.15;;;9.60;;
44925;SDS011;30662;51.210;7.656;2022-12-05T05:02:32;11.10;;;9.90;;
44925;SDS011;30662;51.210;7.656;2022-12-05T05:05:02;11.95;;;10.35;;
44925;SDS011;30662;51.210;7.656;2022-12-05T05:07:51;11.20;;;10.00;;
44925;SDS011;30662;51.210;7.656;2022-12-05T05:10:20;11.48;;;9.93;;
44925;SDS011;30662;51.210;7.656;2022-12-05T05:12:51;11.07;;;9.52;;
44925;SDS011;30662;51.210;7.656;2022-12-05T05:15:17;12.38;;;8.73;;
44925;SDS011;30662;51.210;7.656;2022-12-05T05:17:43;12.00;;;10.43;;
44925;SDS011;30662;51.210;7.656;2022-12-05T05:20:09;9.95;;;8.38;;
44925;SDS011;30662;51.210;7.656;2022-12-05T05:22:52;9.82;;;8.82;;
44925;SDS011;30662;51.210;7.656;2022-12-05T05:25:22;12.48;;;9.18;;
44925;SDS011;30662;51.210;7.656;2022-12-05T05:27:50;12.35;;;9.77;;
44925;SDS011;30662;51.210;7.656;2022-12-05T05:30:17;11.18;;;9.88;;
44925;SDS011;30662;51.210;7.656;2022-12-05T05:32:44;11.23;;;8.85;;
44925;SDS011;30662;51.210;7.656;2022-12-05T05:35:11;10.68;;;9.57;;
44925;SDS011;30662;51.210;7.656;2022-12-05T05:37:38;11.23;;;10.13;;
44925;SDS011;30662;51.210;7.656;2022-12-05T05:40:05;12.13;;;10.30;;
44925;SDS011;30662;51.210;7.656;2022-12-05T05:42:40;10.35;;;9.25;;
44925;SDS011;30662;51.210;7.656;2022-12-05T05:45:10;10.57;;;8.88;;
44925;SDS011;30662;51.210;7.656;2022-12-05T05:47:36;11.30;;;10.10;;
44925;SDS011;30662;51.210;7.656;2022-12-05T05:50:03;11.98;;;9.45;;
44925;SDS011;30662;51.210;7.656;2022-12-05T05:52:31;9.85;;;8.95;;
44925;SDS011;30662;51.210;7.656;2022-12-05T05:54:58;10.30;;;9.10;;
44925;SDS011;30662;51.210;7.656;2022-12-05T05:57:23;11.25;;;8.52;;
44925;SDS011;30662;51.210;7.656;2022-12-05T05:59:49;10.77;;;9.07;;
44925;SDS011;30662;51.210;7.656;2022-12-05T06:02:15;9.65;;;8.50;;
44925;SDS011;30662;51.210;7.656;2022-12-05T06:04:41;10.30;;;9.18;;
44925;SDS011;30662;51.210;7.656;2022-12-05T06:07:07;9.63;;;8.63;;
44925;SDS011;30662;51.210;7.656;2022-12-05T06:09:33;12.75;;;9.10;;
44925;SDS011;30662;51.210;7.656;2022-12-05T06:11:59;10.40;;;9.40;;
44925;SDS011;30662;51.210;7.656;2022-12-05T06:14:25;11.65;;;10.45;;
44925;SDS011;30662;51.210;7.656;2022-12-05T06:16:50;13.25;;;11.82;;
44925;SDS011;30662;51.210;7.656;2022-12-05T06:19:16;12.35;;;11.15;;
44925;SDS011;30662;51.210;7.656;2022-12-05T06:21:42;13.93;;;11.73;;
44925;SDS011;30662;51.210;7.656;2022-12-05T06:24:08;13.23;;;12.00;;
44925;SDS011;30662;51.210;7.656;2022-12-05T06:26:34;14.48;;;13.02;;
44925;SDS011;30662;51.210;7.656;2022-12-05T06:29:00;12.95;;;11.65;;
44925;SDS011;30662;51.210;7.656;2022-12-05T06:31:26;11.43;;;10.32;;
44925;SDS011;30662;51.210;7.656;2022-12-05T06:33:58;12.40;;;10.02;;
44925;SDS011;30662;51.210;7.656;2022-12-05T06:36:27;18.42;;;10.48;;
44925;SDS011;30662;51.210;7.656;2022-12-05T06:38:57;10.88;;;9.77;;
44925;SDS011;30662;51.210;7.656;2022-12-05T06:41:24;10.52;;;9.40;;
44925;SDS011;30662;51.210;7.656;2022-12-05T06:43:51;9.75;;;8.77;;
44925;SDS011;30662;51.210;7.656;2022-12-05T06:46:27;11.20;;;9.57;;
44925;SDS011;30662;51.210;7.656;2022-12-05T06:48:53;10.60;;;9.23;;
44925;SDS011;30662;51.210;7.656;2022-12-05T06:51:21;13.30;;;9.90;;
44925;SDS011;30662;51.210;7.656;2022-12-05T06:53:48;10.00;;;8.82;;
44925;SDS011;30662;51.210;7.656;2022-12-05T06:56:15;12.88;;;10.68;;
44925;SDS011;30662;51.210;7.656;2022-12-05T06:58:44;12.07;;;10.70;;
44925;SDS011;30662;51.210;7.656;2022-12-05T07:01:15;13.10;;;10.18;;
44925;SDS011;30662;51.210;7.656;2022-12-05T07:04:01;11.27;;;9.48;;
44925;SDS011;30662;51.210;7.656;2022-12-05T07:06:28;12.55;;;10.35;;
44925;SDS011;30662;51.210;7.656;2022-12-05T07:08:54;11.57;;;10.38;;
44925;SDS011;30662;51.210;7.656;2022-12-05T07:11:20;11.50;;;9.98;;
44925;SDS011;30662;51.210;7.656;2022-12-05T07:13:46;12.52;;;9.98;;
44925;SDS011;30662;51.210;7.656;2022-12-05T07:16:12;11.80;;;10.57;;
44925;SDS011;30662;51.210;7.656;2022-12-05T07:18:37;11.25;;;10.05;;
44925;SDS011;30662;51.210;7.656;2022-12-05T07:21:04;13.25;;;10.05;;
44925;SDS011;30662;51.210;7.656;2022-12-05T07:23:38;11.73;;;10.50;;
44925;SDS011;30662;51.210;7.656;2022-12-05T07:26:04;11.32;;;10.13;;
44925;SDS011;30662;51.210;7.656;2022-12-05T07:28:31;12.20;;;10.63;;
44925;SDS011;30662;51.210;7.656;2022-12-05T07:30:58;11.27;;;9.82;;
44925;SDS011;30662;51.210;7.656;2022-12-05T07:33:27;13.23;;;11.15;;
44925;SDS011;30662;51.210;7.656;2022-12-05T07:36:07;12.05;;;10.95;;
44925;SDS011;30662;51.210;7.656;2022-12-05T07:38:34;14.13;;;12.00;;
44925;SDS011;30662;51.210;7.656;2022-12-05T07:41:05;12.68;;;10.90;;
44925;SDS011;30662;51.210;7.656;2022-12-05T07:43:38;14.63;;;13.13;;
44925;SDS011;30662;51.210;7.656;2022-12-05T07:46:06;15.40;;;13.95;;
44925;SDS011;30662;51.210;7.656;2022-12-05T07:48:32;12.57;;;11.27;;
44925;SDS011;30662;51.210;7.656;2022-12-05T07:51:00;12.25;;;10.77;;
44925;SDS011;30662;51.210;7.656;2022-12-05T07:53:28;11.25;;;10.15;;
44925;SDS011;30662;51.210;7.656;2022-12-05T07:55:54;13.23;;;10.52;;
44925;SDS011;30662;51.210;7.656;2022-12-05T07:58:23;12.07;;;10.77;;
44925;SDS011;30662;51.210;7.656;2022-12-05T08:00:49;10.15;;;9.15;;
44925;SDS011;30662;51.210;7.656;2022-12-05T08:03:15;9.93;;;8.98;;
44925;SDS011;30662;51.210;7.656;2022-12-05T08:05:41;8.15;;;7.35;;
44925;SDS011;30662;51.210;7.656;2022-12-05T08:08:07;8.20;;;7.38;;
44925;SDS011;30662;51.210;7.656;2022-12-05T08:10:33;8.27;;;7.22;;
44925;SDS011;30662;51.210;7.656;2022-12-05T08:12:59;9.20;;;8.30;;
44925;SDS011;30662;51.210;7.656;2022-12-05T08:15:25;12.32;;;9.05;;
44925;SDS011;30662;51.210;7.656;2022-12-05T08:17:51;9.27;;;8.38;;
44925;SDS011;30662;51.210;7.656;2022-12-05T08:20:17;7.80;;;7.00;;
44925;SDS011;30662;51.210;7.656;2022-12-05T08:22:43;8.60;;;7.70;;
44925;SDS011;30662;51.210;7.656;2022-12-05T08:25:09;8.13;;;7.13;;
44925;SDS011;30662;51.210;7.656;2022-12-05T08:27:35;8.05;;;7.28;;
44925;SDS011;30662;51.210;7.656;2022-12-05T08:30:01;8.25;;;7.45;;
44925;SDS011;30662;51.210;7.656;2022-12-05T08:32:28;8.02;;;7.22;;
44925;SDS011;30662;51.210;7.656;2022-12-05T08:34:53;7.95;;;7.15;;
44925;SDS011;30662;51.210;7.656;2022-12-05T08:37:19;9.70;;;7.00;;
44925;SDS011;30662;51.210;7.656;2022-12-05T08:39:45;9.43;;;7.85;;
44925;SDS011;30662;51.210;7.656;2022-12-05T08:42:11;9.27;;;7.45;;
44925;SDS011;30662;51.210;7.656;2022-12-05T08:44:37;9.68;;;7.55;;
44925;SDS011;30662;51.210;7.656;2022-12-05T08:47:03;9.45;;;6.97;;
44925;SDS011;30662;51.210;7.656;2022-12-05T08:49:28;9.20;;;7.47;;
44925;SDS011;30662;51.210;7.656;2022-12-05T08:51:54;8.77;;;7.47;;
44925;SDS011;30662;51.210;7.656;2022-12-05T08:54:20;10.13;;;7.07;;
44925;SDS011;30662;51.210;7.656;2022-12-05T08:56:49;7.95;;;7.15;;
44925;SDS011;30662;51.210;7.656;2022-12-05T08:59:15;10.18;;;8.10;;
44925;SDS011;30662;51.210;7.656;2022-12-05T09:01:41;8.02;;;7.22;;
44925;SDS011;30662;51.210;7.656;2022-12-05T09:04:07;8.88;;;6.60;;
44925;SDS011;30662;51.210;7.656;2022-12-05T09:06:34;7.30;;;6.60;;
44925;SDS011;30662;51.210;7.656;2022-12-05T09:09:04;6.40;;;5.72;;
44925;SDS011;30662;51.210;7.656;2022-12-05T09:11:33;5.97;;;5.38;;
44925;SDS011;30662;51.210;7.656;2022-12-05T09:14:01;7.22;;;5.65;;
44925;SDS011;30662;51.210;7.656;2022-12-05T09:16:32;8.80;;;5.97;;
44925;SDS011;30662;51.210;7.656;2022-12-05T09:19:04;6.53;;;5.90;;
44925;SDS011;30662;51.210;7.656;2022-12-05T09:21:31;8.35;;;6.18;;
44925;SDS011;30662;51.210;7.656;2022-12-05T09:23:58;6.88;;;6.28;;
44925;SDS011;30662;51.210;7.656;2022-12-05T09:26:27;6.47;;;5.88;;
44925;SDS011;30662;51.210;7.656;2022-12-05T09:28:54;7.43;;;6.40;;
44925;SDS011;30662;51.210;7.656;2022-12-05T09:31:22;6.60;;;5.57;;
44925;SDS011;30662;51.210;7.656;2022-12-05T09:33:50;6.10;;;5.55;;
44925;SDS011;30662;51.210;7.656;2022-12-05T09:36:17;5.75;;;5.18;;
44925;SDS011;30662;51.210;7.656;2022-12-05T09:38:44;6.72;;;5.15;;
44925;SDS011;30662;51.210;7.656;2022-12-05T09:41:35;5.68;;;5.18;;
44925;SDS011;30662;51.210;7.656;2022-12-05T09:49:48;6.20;;;5.60;;
44925;SDS011;30662;51.210;7.656;2022-12-05T09:52:24;5.78;;;5.28;;
44925;SDS011;30662;51.210;7.656;2022-12-05T09:54:53;5.57;;;5.03;;
44925;SDS011;30662;51.210;7.656;2022-12-05T09:57:23;6.05;;;5.45;;
44925;SDS011;30662;51.210;7.656;2022-12-05T09:59:59;6.75;;;6.03;;
44925;SDS011;30662;51.210;7.656;2022-12-05T10:02:31;7.43;;;6.60;;
44925;SDS011;30662;51.210;7.656;2022-12-05T10:08:25;6.28;;;5.68;;
44925;SDS011;30662;51.210;7.656;2022-12-05T10:16:30;7.20;;;6.50;;
44925;SDS011;30662;51.210;7.656;2022-12-05T10:19:03;6.82;;;6.15;;
44925;SDS011;30662;51.210;7.656;2022-12-05T10:21:58;7.40;;;6.72;;
44925;SDS011;30662;51.210;7.656;2022-12-05T10:24:31;7.80;;;7.00;;
44925;SDS011;30662;51.210;7.656;2022-12-05T10:27:06;7.90;;;7.10;;
44925;SDS011;30662;51.210;7.656;2022-12-05T10:29:41;8.23;;;7.20;;
44925;SDS011;30662;51.210;7.656;2022-12-05T10:35:18;10.07;;;8.93;;
44925;SDS011;30662;51.210;7.656;2022-12-05T10:37:45;9.30;;;8.40;;
44925;SDS011;30662;51.210;7.656;2022-12-05T10:40:14;8.75;;;7.85;;
44925;SDS011;30662;51.210;7.656;2022-12-05T10:42:41;8.45;;;7.63;;
44925;SDS011;30662;51.210;7.656;2022-12-05T10:45:12;8.48;;;6.97;;
44925;SDS011;30662;51.210;7.656;2022-12-05T10:47:45;8.63;;;7.72;;
44925;SDS011;30662;51.210;7.656;2022-12-05T10:50:31;8.52;;;6.93;;
44925;SDS011;30662;51.210;7.656;2022-12-05T10:53:01;9.48;;;8.07;;
44925;SDS011;30662;51.210;7.656;2022-12-05T10:55:30;10.70;;;8.88;;
44925;SDS011;30662;51.210;7.656;2022-12-05T10:58:08;9.50;;;8.38;;
44925;SDS011;30662;51.210;7.656;2022-12-05T11:00:43;9.93;;;8.57;;
44925;SDS011;30662;51.210;7.656;2022-12-05T11:06:21;12.05;;;9.38;;
44925;SDS011;30662;51.210;7.656;2022-12-05T11:08:52;11.00;;;9.27;;
44925;SDS011;30662;51.210;7.656;2022-12-05T11:11:34;10.02;;;8.98;;
44925;SDS011;30662;51.210;7.656;2022-12-05T11:14:02;9.27;;;8.27;;
44925;SDS011;30662;51.210;7.656;2022-12-05T11:21:50;11.88;;;9.82;;
44925;SDS011;30662;51.210;7.656;2022-12-05T11:27:00;11.85;;;9.45;;
44925;SDS011;30662;51.210;7.656;2022-12-05T11:32:38;12.55;;;10.48;;
44925;SDS011;30662;51.210;7.656;2022-12-05T11:37:50;11.43;;;10.20;;
44925;SDS011;30662;51.210;7.656;2022-12-05T11:40:32;11.23;;;10.00;;
44925;SDS011;30662;51.210;7.656;2022-12-05T11:50:59;11.25;;;9.25;;
44925;SDS011;30662;51.210;7.656;2022-12-05T11:53:48;11.82;;;9.68;;
44925;SDS011;30662;51.210;7.656;2022-12-05T11:56:37;11.95;;;10.40;;
44925;SDS011;30662;51.210;7.656;2022-12-05T12:02:00;16.05;;;11.02;;
44925;SDS011;30662;51.210;7.656;2022-12-05T12:10:07;12.00;;;10.45;;
44925;SDS011;30662;51.210;7.656;2022-12-05T12:13:18;14.55;;;10.75;;
44925;SDS011;30662;51.210;7.656;2022-12-05T12:24:35;11.20;;;9.82;;
44925;SDS011;30662;51.210;7.656;2022-12-05T12:27:13;11.80;;;10.30;;
44925;SDS011;30662;51.210;7.656;2022-12-05T12:30:06;14.43;;;10.32;;
44925;SDS011;30662;51.210;7.656;2022-12-05T12:40:54;12.73;;;10.70;;
44925;SDS011;30662;51.210;7.656;2022-12-05T12:49:24;11.77;;;10.05;;
44925;SDS011;30662;51.210;7.656;2022-12-05T12:52:01;11.98;;;10.00;;
44925;SDS011;30662;51.210;7.656;2022-12-05T12:54:42;14.50;;;10.65;;
44925;SDS011;30662;51.210;7.656;2022-12-05T13:00:21;14.00;;;10.30;;
44925;SDS011;30662;51.210;7.656;2022-12-05T13:03:02;17.08;;;11.35;;
44925;SDS011;30662;51.210;7.656;2022-12-05T13:05:55;12.43;;;9.82;;
44925;SDS011;30662;51.210;7.656;2022-12-05T13:08:39;14.48;;;10.88;;
44925;SDS011;30662;51.210;7.656;2022-12-05T13:11:13;16.50;;;11.45;;
44925;SDS011;30662;51.210;7.656;2022-12-05T13:13:49;16.08;;;11.48;;
44925;SDS011;30662;51.210;7.656;2022-12-05T13:16:51;23.00;;;13.18;;
44925;SDS011;30662;51.210;7.656;2022-12-05T13:19:36;15.20;;;11.73;;
44925;SDS011;30662;51.210;7.656;2022-12-05T13:22:22;18.30;;;12.82;;
44925;SDS011;30662;51.210;7.656;2022-12-05T13:24:51;14.85;;;11.65;;
44925;SDS011;30662;51.210;7.656;2022-12-05T13:27:18;16.55;;;12.43;;
44925;SDS011;30662;51.210;7.656;2022-12-05T13:29:56;16.58;;;13.30;;
44925;SDS011;30662;51.210;7.656;2022-12-05T13:32:27;89.60;;;13.20;;
44925;SDS011;30662;51.210;7.656;2022-12-05T13:35:00;41.65;;;13.00;;
44925;SDS011;30662;51.210;7.656;2022-12-05T13:37:34;19.17;;;13.48;;
44925;SDS011;30662;51.210;7.656;2022-12-05T13:43:16;47.97;;;14.68;;
44925;SDS011;30662;51.210;7.656;2022-12-05T13:46:04;18.42;;;13.25;;
44925;SDS011;30662;51.210;7.656;2022-12-05T13:48:32;38.25;;;12.95;;
44925;SDS011;30662;51.210;7.656;2022-12-05T13:51:06;18.42;;;12.73;;
44925;SDS011;30662;51.210;7.656;2022-12-05T13:53:45;17.02;;;12.25;;
44925;SDS011;30662;51.210;7.656;2022-12-05T13:58:43;14.68;;;11.25;;
44925;SDS011;30662;51.210;7.656;2022-12-05T14:17:25;20.88;;;11.00;;
44925;SDS011;30662;51.210;7.656;2022-12-05T14:20:18;15.20;;;10.57;;
44925;SDS011;30662;51.210;7.656;2022-12-05T14:34:02;18.98;;;12.18;;
44925;SDS011;30662;51.210;7.656;2022-12-05T14:36:30;18.92;;;11.20;;
44925;SDS011;30662;51.210;7.656;2022-12-05T14:38:58;24.92;;;15.02;;
44925;SDS011;30662;51.210;7.656;2022-12-05T14:41:31;20.30;;;11.23;;
44925;SDS011;30662;51.210;7.656;2022-12-05T14:46:33;16.60;;;10.20;;
44925;SDS011;30662;51.210;7.656;2022-12-05T14:49:32;18.33;;;11.23;;
44925;SDS011;30662;51.210;7.656;2022-12-05T14:52:17;17.17;;;10.65;;
44925;SDS011;30662;51.210;7.656;2022-12-05T14:54:45;20.08;;;11.27;;
44925;SDS011;30662;51.210;7.656;2022-12-05T14:57:12;17.08;;;11.25;;
44925;SDS011;30662;51.210;7.656;2022-12-05T14:59:45;24.85;;;11.02;;
44925;SDS011;30662;51.210;7.656;2022-12-05T15:02:24;14.50;;;10.27;;
44925;SDS011;30662;51.210;7.656;2022-12-05T15:04:55;16.08;;;10.38;;
44925;SDS011;30662;51.210;7.656;2022-12-05T15:07:33;15.32;;;9.38;;
44925;SDS011;30662;51.210;7.656;2022-12-05T15:15:18;12.32;;;8.70;;
44925;SDS011;30662;51.210;7.656;2022-12-05T15:20:49;11.18;;;8.38;;
44925;SDS011;30662;51.210;7.656;2022-12-05T15:23:37;10.90;;;9.02;;
44925;SDS011;30662;51.210;7.656;2022-12-05T15:26:15;13.23;;;9.43;;
44925;SDS011;30662;51.210;7.656;2022-12-05T15:29:05;10.35;;;7.70;;
44925;SDS011;30662;51.210;7.656;2022-12-05T15:31:39;10.02;;;8.15;;
44925;SDS011;30662;51.210;7.656;2022-12-05T15:42:29;12.13;;;9.23;;
44925;SDS011;30662;51.210;7.656;2022-12-05T15:48:17;11.48;;;8.70;;
44925;SDS011;30662;51.210;7.656;2022-12-05T15:50:48;9.98;;;8.00;;
44925;SDS011;30662;51.210;7.656;2022-12-05T15:56:03;11.40;;;8.43;;
44925;SDS011;30662;51.210;7.656;2022-12-05T15:58:34;9.40;;;7.95;;
44925;SDS011;30662;51.210;7.656;2022-12-05T16:01:21;11.95;;;8.45;;
44925;SDS011;30662;51.210;7.656;2022-12-05T16:08:51;9.65;;;7.82;;
44925;SDS011;30662;51.210;7.656;2022-12-05T16:11:18;10.13;;;8.32;;
44925;SDS011;30662;51.210;7.656;2022-12-05T16:13:54;10.45;;;8.38;;
44925;SDS011;30662;51.210;7.656;2022-12-05T16:16:24;14.20;;;10.23;;
44925;SDS011;30662;51.210;7.656;2022-12-05T16:18:55;10.75;;;8.85;;
44925;SDS011;30662;51.210;7.656;2022-12-05T16:26:41;10.90;;;8.07;;
44925;SDS011;30662;51.210;7.656;2022-12-05T16:29:23;9.85;;;7.82;;
44925;SDS011;30662;51.210;7.656;2022-12-05T16:31:54;9.10;;;8.20;;
44925;SDS011;30662;51.210;7.656;2022-12-05T16:34:23;9.90;;;8.55;;
44925;SDS011;30662;51.210;7.656;2022-12-05T16:36:50;10.60;;;8.60;;
44925;SDS011;30662;51.210;7.656;2022-12-05T16:39:18;9.75;;;8.65;;
44925;SDS011;30662;51.210;7.656;2022-12-05T16:41:45;11.25;;;8.77;;
44925;SDS011;30662;51.210;7.656;2022-12-05T16:47:25;10.73;;;9.20;;
44925;SDS011;30662;51.210;7.656;2022-12-05T16:52:49;11.02;;;9.00;;
44925;SDS011;30662;51.210;7.656;2022-12-05T16:55:24;11.60;;;10.38;;
44925;SDS011;30662;51.210;7.656;2022-12-05T16:57:50;13.77;;;10.95;;
44925;SDS011;30662;51.210;7.656;2022-12-05T17:00:16;11.23;;;9.48;;
44925;SDS011;30662;51.210;7.656;2022-12-05T17:02:42;11.10;;;9.93;;
44925;SDS011;30662;51.210;7.656;2022-12-05T17:05:13;10.90;;;9.38;;
44925;SDS011;30662;51.210;7.656;2022-12-05T17:07:40;9.85;;;8.77;;
44925;SDS011;30662;51.210;7.656;2022-12-05T17:10:06;9.52;;;8.52;;
44925;SDS011;30662;51.210;7.656;2022-12-05T17:12:32;9.73;;;8.73;;
44925;SDS011;30662;51.210;7.656;2022-12-05T17:14:58;10.98;;;9.05;;
44925;SDS011;30662;51.210;7.656;2022-12-05T17:17:25;9.60;;;8.60;;
44925;SDS011;30662;51.210;7.656;2022-12-05T17:19:51;9.73;;;8.70;;
44925;SDS011;30662;51.210;7.656;2022-12-05T17:22:16;9.93;;;8.73;;
44925;SDS011;30662;51.210;7.656;2022-12-05T17:24:43;11.02;;;9.18;;
44925;SDS011;30662;51.210;7.656;2022-12-05T17:27:09;10.15;;;8.82;;
44925;SDS011;30662;51.210;7.656;2022-12-05T17:29:36;12.68;;;11.23;;
44925;SDS011;30662;51.210;7.656;2022-12-05T17:32:02;10.70;;;9.05;;
44925;SDS011;30662;51.210;7.656;2022-12-05T17:34:29;12.07;;;10.00;;
44925;SDS011;30662;51.210;7.656;2022-12-05T17:36:55;9.25;;;8.35;;
44925;SDS011;30662;51.210;7.656;2022-12-05T17:39:20;9.85;;;8.85;;
44925;SDS011;30662;51.210;7.656;2022-12-05T17:41:53;10.90;;;9.80;;
44925;SDS011;30662;51.210;7.656;2022-12-05T17:44:19;10.38;;;9.38;;
44925;SDS011;30662;51.210;7.656;2022-12-05T17:46:46;10.25;;;9.25;;
44925;SDS011;30662;51.210;7.656;2022-12-05T17:49:12;12.93;;;10.82;;
44925;SDS011;30662;51.210;7.656;2022-12-05T17:51:39;12.52;;;11.18;;
44925;SDS011;30662;51.210;7.656;2022-12-05T17:54:26;13.15;;;11.10;;
44925;SDS011;30662;51.210;7.656;2022-12-05T17:56:52;12.35;;;10.98;;
44925;SDS011;30662;51.210;7.656;2022-12-05T17:59:18;11.63;;;10.18;;
44925;SDS011;30662;51.210;7.656;2022-12-05T18:01:43;12.35;;;10.93;;
44925;SDS011;30662;51.210;7.656;2022-12-05T18:04:09;11.18;;;9.98;;
44925;SDS011;30662;51.210;7.656;2022-12-05T18:06:35;15.57;;;11.60;;
44925;SDS011;30662;51.210;7.656;2022-12-05T18:09:01;13.73;;;10.93;;
44925;SDS011;30662;51.210;7.656;2022-12-05T18:11:27;11.25;;;10.02;;